Time;durP1;ratioP1;P1;durP2;ratioP2;P2;SDS_P1;SDS_P2;PMS_P1;PMS_P2;Temp;Humidity;BMP_temperature;BMP_pressure;BME280_temperature;BME280_humidity;BME280_pressure;Samples;Min_cycle;Max_cycle;Signal;HPM_P1;HPM_P2
2023/12/07 00:01:06;;;;;;;6.57;4.03;;;2.10;99.90;;;1.15;100.00;97516.88;5015160;28;20037;-35
2023/12/07 00:03:32;;;;;;;7.93;4.28;;;2.10;99.90;;;1.16;100.00;97528.13;5013930;28;20116;-35
2023/12/07 00:05:57;;;;;;;7.47;4.18;;;2.20;99.90;;;1.22;100.00;97543.72;5011380;28;20123;-35
2023/12/07 00:08:23;;;;;;;7.00;4.40;;;2.20;99.90;;;1.21;100.00;97547.22;5016878;28;20482;-36
2023/12/07 00:10:49;;;;;;;7.15;4.55;;;2.20;99.90;;;1.21;100.00;97542.88;5012274;28;20151;-36
2023/12/07 00:13:14;;;;;;;7.90;4.30;;;2.10;99.90;;;1.20;100.00;97535.91;5013399;28;20128;-36
2023/12/07 00:15:40;;;;;;;7.43;4.57;;;2.10;99.90;;;1.19;100.00;97541.16;5011880;28;20072;-36
2023/12/07 00:18:06;;;;;;;7.57;4.57;;;2.10;99.90;;;1.21;100.00;97547.22;4998660;28;20144;-36
2023/12/07 00:20:31;;;;;;;6.05;3.88;;;2.20;99.90;;;1.11;100.00;97536.78;5012384;28;20140;-36
2023/12/07 00:22:57;;;;;;;7.43;4.40;;;2.10;99.90;;;1.07;100.00;97521.19;4992235;28;20272;-36
2023/12/07 00:25:23;;;;;;;6.68;4.13;;;2.20;99.90;;;1.24;100.00;97553.28;5015352;28;20045;-37
2023/12/07 00:27:49;;;;;;;7.10;4.38;;;2.20;99.90;;;1.21;100.00;97552.41;5016517;28;20072;-36
2023/12/07 00:30:16;;;;;;;5.72;4.20;;;2.20;99.90;;;1.25;100.00;97552.41;5015269;28;20037;-37
2023/12/07 00:32:43;;;;;;;7.38;4.18;;;2.20;99.90;;;1.27;100.00;97560.19;5013473;28;20522;-37
2023/12/07 00:35:13;;;;;;;6.55;4.43;;;2.20;99.90;;;1.29;100.00;97551.56;5015004;28;20068;-36
2023/12/07 00:37:38;;;;;;;7.78;3.90;;;2.20;99.90;;;1.25;100.00;97552.41;5014519;28;20113;-36
2023/12/07 00:40:05;;;;;;;8.10;4.57;;;2.30;99.90;;;1.37;100.00;97563.69;5013845;28;20488;-36
2023/12/07 00:42:31;;;;;;;6.10;3.63;;;2.30;99.90;;;1.37;100.00;97567.16;5014569;28;20025;-37
2023/12/07 00:44:57;;;;;;;6.72;4.20;;;2.30;99.90;;;1.39;100.00;97565.44;5012139;28;20429;-36
2023/12/07 00:47:23;;;;;;;5.40;3.78;;;2.30;99.90;;;1.40;100.00;97566.28;5009170;28;20061;-36
2023/12/07 00:49:49;;;;;;;6.75;4.30;;;2.30;99.90;;;1.39;100.00;97565.44;5012586;28;20512;-36
2023/12/07 00:52:15;;;;;;;6.25;4.00;;;2.30;99.90;;;1.41;100.00;97568.03;5013605;28;20659;-36
2023/12/07 00:54:40;;;;;;;6.35;4.20;;;2.30;99.90;;;1.39;100.00;97554.16;5012009;28;20379;-37
2023/12/07 00:57:06;;;;;;;6.43;4.25;;;2.30;99.90;;;1.40;100.00;97561.97;5015595;28;20471;-36
2023/12/07 00:59:36;;;;;;;9.55;4.65;;;2.40;99.90;;;1.33;100.00;97542.03;5010843;28;20034;-36
2023/12/07 01:02:07;;;;;;;6.32;3.95;;;2.40;99.90;;;1.46;100.00;97566.31;5009474;28;20033;-36
2023/12/07 01:04:33;;;;;;;9.00;4.15;;;2.40;99.90;;;1.46;100.00;97572.38;5014698;28;20052;-36
2023/12/07 01:06:59;;;;;;;6.10;3.90;;;2.40;99.90;;;1.42;100.00;97557.66;5015699;28;20146;-36
2023/12/07 01:09:26;;;;;;;6.65;3.55;;;2.40;99.90;;;1.49;100.00;97567.19;5009334;28;20485;-36
2023/12/07 01:11:52;;;;;;;6.20;4.07;;;2.40;99.90;;;1.51;100.00;97573.25;5014503;28;20041;-36
2023/12/07 01:14:18;;;;;;;7.25;4.20;;;2.40;99.90;;;1.56;100.00;97577.56;5016459;28;20061;-36
2023/12/07 01:16:44;;;;;;;6.55;3.78;;;2.50;99.90;;;1.55;100.00;97576.72;5012779;28;20386;-36
2023/12/07 01:19:14;;;;;;;5.35;3.55;;;2.50;99.90;;;1.56;100.00;97583.63;5012812;28;20042;-36
2023/12/07 01:21:42;;;;;;;6.10;3.83;;;2.50;99.90;;;1.57;100.00;97577.59;5011876;28;20610;-36
2023/12/07 01:24:09;;;;;;;6.55;3.47;;;2.50;99.90;;;1.57;100.00;97587.97;5012862;28;20029;-36
2023/12/07 01:26:34;;;;;;;5.20;3.65;;;2.50;99.90;;;1.56;100.00;97586.22;5013613;28;20037;-36
2023/12/07 01:29:00;;;;;;;6.93;4.00;;;2.50;99.90;;;1.60;100.00;97584.50;5014350;28;20033;-37
2023/12/07 01:31:26;;;;;;;8.25;3.58;;;2.50;99.90;;;1.61;100.00;97588.84;5012153;28;20041;-37
2023/12/07 01:33:52;;;;;;;7.32;3.28;;;2.50;99.90;;;1.63;100.00;97589.72;5013869;28;20056;-37
2023/12/07 01:36:17;;;;;;;5.32;3.40;;;2.50;99.90;;;1.60;100.00;97593.19;5014547;28;20025;-37
2023/12/07 01:38:43;;;;;;;5.82;3.55;;;2.50;99.90;;;1.46;100.00;97568.91;5011729;28;20039;-37
2023/12/07 01:41:10;;;;;;;5.90;3.58;;;2.50;99.90;;;1.53;100.00;97592.31;5014469;28;20076;-37
2023/12/07 01:43:35;;;;;;;5.43;3.42;;;2.50;99.90;;;1.55;100.00;97588.84;5014364;28;20116;-37
2023/12/07 01:46:02;;;;;;;6.53;3.30;;;2.50;99.90;;;1.47;100.00;97587.13;5014194;28;20792;-37
2023/12/07 01:48:29;;;;;;;5.70;3.33;;;2.40;99.90;;;1.40;100.00;97589.69;5014678;28;20072;-37
2023/12/07 01:50:56;;;;;;;6.57;3.35;;;2.30;99.90;;;1.30;100.00;97594.84;5011792;28;20052;-35
2023/12/07 01:53:24;;;;;;;7.68;3.50;;;2.30;99.90;;;1.24;100.00;97599.16;5008977;28;20112;-36
2023/12/07 01:55:51;;;;;;;6.05;3.47;;;2.20;99.90;;;1.10;100.00;97584.41;5011952;28;20480;-36
2023/12/07 01:58:18;;;;;;;5.72;3.20;;;2.20;99.90;;;1.16;100.00;97598.28;5015020;28;20069;-36
2023/12/07 02:00:44;;;;;;;5.05;3.30;;;2.10;99.90;;;1.11;100.00;97598.25;5009590;28;20108;-36
2023/12/07 02:03:11;;;;;;;9.80;3.60;;;2.10;99.90;;;1.06;100.00;97592.16;5014227;28;20022;-37
2023/12/07 02:05:42;;;;;;;5.75;3.38;;;2.10;99.90;;;1.08;100.00;97600.84;5016739;28;20046;-37
2023/12/07 02:08:08;;;;;;;5.78;3.75;;;2.00;99.90;;;1.10;100.00;97604.31;5014142;28;20092;-36
2023/12/07 02:10:34;;;;;;;9.95;3.45;;;2.10;99.90;;;1.12;100.00;97603.44;5016198;28;20721;-37
2023/12/07 02:12:59;;;;;;;5.82;3.45;;;2.10;99.90;;;1.16;100.00;97599.13;5014682;28;20079;-37
2023/12/07 02:15:25;;;;;;;6.43;3.10;;;2.10;99.90;;;1.14;100.00;97591.34;5017025;28;20557;-37
2023/12/07 02:18:01;;;;;;;7.00;3.60;;;2.10;99.90;;;1.15;100.00;97589.63;5016358;28;20429;-37
2023/12/07 02:20:51;;;;;;;7.20;3.70;;;2.00;99.90;;;1.05;100.00;97593.03;5019654;28;20034;-37
2023/12/07 02:23:18;;;;;;;5.95;3.55;;;2.00;99.90;;;1.00;100.00;97590.41;5019229;28;20116;-37
2023/12/07 02:25:52;;;;;;;4.95;3.15;;;1.90;99.90;;;0.84;100.00;97580.81;5017190;28;20041;-37
2023/12/07 02:28:18;;;;;;;5.72;3.35;;;1.80;99.90;;;0.86;100.00;97585.19;5015136;28;20030;-37
2023/12/07 02:30:44;;;;;;;6.07;3.47;;;1.70;99.90;;;0.81;100.00;97581.69;5015837;28;23718;-37
2023/12/07 02:33:10;;;;;;;4.15;2.92;;;1.70;99.90;;;0.76;100.00;97592.03;5015740;28;20654;-37
2023/12/07 02:35:38;;;;;;;8.30;3.33;;;1.60;99.90;;;0.73;100.00;97596.34;5014102;28;20480;-37
2023/12/07 02:38:05;;;;;;;5.38;3.20;;;1.60;99.90;;;0.67;100.00;97598.94;5006717;28;20370;-37
2023/12/07 02:40:31;;;;;;;6.60;3.45;;;1.60;99.90;;;0.61;100.00;97598.88;5002440;28;20037;-37
2023/12/07 02:42:59;;;;;;;6.35;3.45;;;1.50;99.90;;;0.53;100.00;97606.63;5016981;28;20036;-37
2023/12/07 02:45:26;;;;;;;5.68;3.40;;;1.50;99.90;;;0.50;100.00;97599.72;4993438;28;20034;-37
2023/12/07 02:47:52;;;;;;;6.07;3.63;;;1.40;99.90;;;0.46;100.00;97597.06;5016220;28;20048;-37
2023/12/07 02:50:18;;;;;;;7.53;3.22;;;1.40;99.90;;;0.42;100.00;97584.94;5015360;28;20042;-37
2023/12/07 02:52:44;;;;;;;6.60;3.72;;;1.40;99.90;;;0.47;100.00;97591.91;5014801;28;20033;-37
2023/12/07 02:55:10;;;;;;;7.60;3.75;;;1.40;99.90;;;0.50;100.00;97589.31;5018273;28;20030;-34
2023/12/07 02:57:36;;;;;;;8.20;3.90;;;1.50;99.90;;;0.55;100.00;97592.78;5017428;28;20033;-35
2023/12/07 03:00:07;;;;;;;6.20;3.65;;;1.50;99.90;;;0.50;100.00;97576.34;5015135;28;20033;-36
2023/12/07 03:02:39;;;;;;;5.95;3.70;;;1.60;99.90;;;0.64;100.00;97591.13;5016182;28;20040;-36
2023/12/07 03:05:06;;;;;;;6.35;3.88;;;1.60;99.90;;;0.70;100.00;97601.53;5012004;28;20028;-37
2023/12/07 03:07:33;;;;;;;6.00;3.80;;;1.60;99.90;;;0.75;100.00;97597.22;5017524;28;20037;-36
2023/12/07 03:09:58;;;;;;;6.95;3.65;;;1.60;99.90;;;0.76;100.00;97605.03;5015765;28;20117;-36
2023/12/07 03:12:24;;;;;;;5.75;3.70;;;1.70;99.90;;;0.79;100.00;97604.19;5000716;28;20037;-35
2023/12/07 03:14:50;;;;;;;6.13;4.00;;;1.70;99.90;;;0.80;100.00;97605.91;5010399;28;20036;-36
2023/12/07 03:17:15;;;;;;;6.15;4.15;;;1.70;99.90;;;0.79;100.00;97600.69;5016467;28;20034;-36
2023/12/07 03:19:42;;;;;;;5.93;4.28;;;1.80;99.90;;;0.75;100.00;97602.41;5012425;28;20297;-36
2023/12/07 03:22:08;;;;;;;8.52;4.38;;;1.70;99.90;;;0.62;100.00;97580.72;5010045;28;20030;-36
2023/12/07 03:24:36;;;;;;;5.25;3.60;;;1.70;99.90;;;0.73;100.00;97604.16;5010521;28;20478;-35
2023/12/07 03:27:01;;;;;;;6.50;3.88;;;1.70;99.90;;;0.66;100.00;97595.44;5014828;28;20863;-36
2023/12/07 03:29:27;;;;;;;8.13;4.10;;;1.60;99.90;;;0.62;100.00;97603.22;5015290;28;20104;-36
2023/12/07 03:31:53;;;;;;;6.70;3.90;;;1.50;99.90;;;0.52;100.00;97610.06;5013680;28;20030;-36
2023/12/07 03:34:18;;;;;;;5.95;3.97;;;1.50;99.90;;;0.40;100.00;97603.09;5014193;28;20374;-36
2023/12/07 03:36:48;;;;;;;7.43;4.07;;;1.40;99.90;;;0.29;100.00;97605.63;5010712;28;20071;-36
2023/12/07 03:39:15;;;;;;;5.07;3.97;;;1.20;99.90;;;0.21;100.00;97604.69;5014013;28;20094;-36
2023/12/07 03:41:41;;;;;;;5.20;4.10;;;1.10;99.90;;;0.14;100.00;97608.09;5010127;28;20044;-36
2023/12/07 03:44:07;;;;;;;7.13;3.97;;;1.10;99.90;;;0.06;100.00;97608.03;5012948;28;20037;-36
2023/12/07 03:46:32;;;;;;;7.93;4.03;;;1.00;99.90;;;-0.01;100.00;97603.66;5011691;28;20561;-36
2023/12/07 03:48:59;;;;;;;6.28;3.85;;;0.90;99.90;;;-0.07;100.00;97614.84;5016066;28;20045;-36
2023/12/07 03:51:27;;;;;;;8.32;4.55;;;0.80;99.90;;;-0.23;100.00;97595.69;4998748;28;20572;-36
2023/12/07 03:53:54;;;;;;;6.18;3.97;;;0.80;99.90;;;-0.23;100.00;97611.25;5014538;28;20119;-36
2023/12/07 03:56:30;;;;;;;6.15;3.88;;;0.70;99.90;;;-0.31;100.00;97604.25;5016799;28;20032;-36
2023/12/07 03:58:57;;;;;;;8.00;4.38;;;0.60;99.90;;;-0.40;100.00;97613.66;5011276;28;20037;-36
2023/12/07 04:01:28;;;;;;;6.45;3.78;;;0.50;99.90;;;-0.47;100.00;97614.47;5013124;28;20148;-36
2023/12/07 04:03:55;;;;;;;7.22;4.30;;;0.50;99.90;;;-0.55;100.00;97604.91;5010834;28;20032;-36
2023/12/07 04:06:22;;;;;;;7.82;4.22;;;0.40;99.90;;;-0.64;100.00;97600.47;5014853;28;20036;-36
2023/12/07 04:08:48;;;;;;;8.25;4.47;;;0.40;99.90;;;-0.66;100.00;97626.38;5013810;28;20033;-36
2023/12/07 04:11:15;;;;;;;6.68;4.35;;;0.30;99.90;;;-0.79;100.00;97606.34;5011239;28;20064;-36
2023/12/07 04:13:41;;;;;;;6.22;4.25;;;0.30;99.90;;;-0.83;100.00;97607.16;5012551;28;20030;-36
2023/12/07 04:16:08;;;;;;;7.15;4.35;;;0.20;99.90;;;-0.82;100.00;97619.28;5011043;28;20037;-36
2023/12/07 04:18:34;;;;;;;7.80;4.60;;;0.20;99.90;;;-0.85;100.00;97620.09;4995255;28;20060;-36
2023/12/07 04:20:59;;;;;;;9.35;5.10;;;0.10;99.90;;;-0.89;100.00;97631.28;5013316;28;20433;-36
2023/12/07 04:23:25;;;;;;;10.07;5.38;;;0.10;99.90;;;-0.93;100.00;97623.44;5016003;28;20891;-37
2023/12/07 04:25:51;;;;;;;7.60;4.43;;;0.00;99.90;;;-0.95;100.00;97631.22;5013353;28;20037;-36
2023/12/07 04:28:17;;;;;;;11.38;5.18;;;0.00;99.90;;;-0.97;100.00;97630.31;5011485;28;20021;-36
2023/12/07 04:30:42;;;;;;;9.38;5.45;;;0.00;99.90;;;-1.01;100.00;97623.34;5011970;28;20064;-37
2023/12/07 04:33:08;;;;;;;10.43;5.10;;;0.00;99.90;;;-1.05;100.00;97616.41;5013718;28;20036;-37
2023/12/07 04:35:34;;;;;;;10.07;5.30;;;-0.10;99.90;;;-1.01;100.00;97625.94;5014032;28;20510;-37
2023/12/07 04:38:00;;;;;;;10.15;5.10;;;-0.10;99.90;;;-1.11;100.00;97619.78;5013331;28;20469;-36
2023/12/07 04:40:26;;;;;;;10.73;5.70;;;-0.10;99.90;;;-1.03;100.00;97632.81;5010674;28;20033;-37
2023/12/07 04:42:52;;;;;;;11.93;5.20;;;-0.10;99.90;;;-1.07;100.00;97638.81;5011865;28;20517;-37
2023/12/07 04:45:18;;;;;;;8.75;4.95;;;-0.10;99.90;;;-1.11;100.00;97637.91;5014000;28;20108;-36
2023/12/07 04:47:43;;;;;;;9.23;4.95;;;-0.10;99.90;;;-1.15;100.00;97638.69;5011207;28;20037;-37
2023/12/07 04:50:09;;;;;;;8.93;4.82;;;-0.20;99.90;;;-1.23;100.00;97629.97;5011219;28;20116;-36
2023/12/07 04:52:35;;;;;;;10.50;4.95;;;-0.20;99.90;;;-1.25;100.00;97629.09;5012238;28;20184;-37
2023/12/07 04:55:01;;;;;;;7.97;4.50;;;-0.30;99.90;;;-1.34;100.00;97627.25;5015195;28;20163;-37
2023/12/07 04:57:27;;;;;;;8.25;5.30;;;-0.30;99.90;;;-1.45;100.00;97614.16;5006307;28;20505;-37
2023/12/07 04:59:53;;;;;;;8.05;5.05;;;-0.40;99.90;;;-1.38;100.00;97628.06;5003343;28;20132;-37
2023/12/07 05:02:19;;;;;;;8.05;5.22;;;-0.40;99.90;;;-1.42;100.00;97634.03;5011691;28;20029;-37
2023/12/07 05:04:45;;;;;;;8.00;4.85;;;-0.40;99.90;;;-1.47;100.00;97623.63;5011920;28;21067;-37
2023/12/07 05:07:13;;;;;;;9.88;4.88;;;-0.50;99.90;;;-1.52;100.00;97635.63;5015143;28;20055;-36
2023/12/07 05:09:40;;;;;;;8.75;5.35;;;-0.50;99.90;;;-1.60;100.00;97625.19;5004936;28;20041;-36
2023/12/07 05:12:06;;;;;;;10.57;5.38;;;-0.50;99.90;;;-1.56;100.00;97632.13;5010820;28;20516;-37
2023/12/07 05:14:32;;;;;;;8.50;5.03;;;-0.60;99.90;;;-1.59;100.00;97637.25;5012098;28;20108;-37
2023/12/07 05:16:58;;;;;;;8.45;5.32;;;-0.60;99.90;;;-1.72;100.00;97617.22;5012565;28;20029;-37
2023/12/07 05:19:24;;;;;;;7.85;4.88;;;-0.60;99.90;;;-1.65;100.00;97638.84;5010575;28;20056;-37
2023/12/07 05:21:51;;;;;;;8.27;4.93;;;-0.70;99.90;;;-1.69;100.00;97643.13;5008302;28;20031;-36
2023/12/07 05:24:17;;;;;;;8.45;4.82;;;-0.70;99.90;;;-1.73;100.00;97642.19;5013750;28;20029;-37
2023/12/07 05:26:46;;;;;;;9.65;4.60;;;-0.70;99.90;;;-1.71;100.00;97649.13;5011432;28;20132;-36
2023/12/07 05:29:12;;;;;;;9.90;4.93;;;-0.70;99.90;;;-1.71;100.00;97646.53;5004115;28;20036;-37
2023/12/07 05:31:38;;;;;;;8.57;5.20;;;-0.70;99.90;;;-1.76;100.00;97642.19;5012078;28;20175;-37
2023/12/07 05:34:05;;;;;;;8.10;5.22;;;-0.70;99.90;;;-1.77;100.00;97650.75;5010109;28;20382;-37
2023/12/07 05:36:31;;;;;;;7.00;4.68;;;-0.80;99.90;;;-1.80;100.00;97642.94;5009738;28;20064;-37
2023/12/07 05:38:56;;;;;;;8.43;4.82;;;-0.80;99.90;;;-1.79;100.00;97649.00;5007263;28;20039;-37
2023/12/07 05:41:22;;;;;;;8.05;4.40;;;-0.80;99.90;;;-1.82;100.00;97652.41;5013810;28;20053;-34
2023/12/07 05:43:48;;;;;;;8.65;4.72;;;-0.80;99.90;;;-1.82;100.00;97659.31;5012550;28;20124;-35
2023/12/07 05:46:14;;;;;;;7.97;4.47;;;-0.80;99.90;;;-1.85;100.00;97652.34;5007517;28;20514;-36
2023/12/07 05:48:40;;;;;;;7.85;4.40;;;-0.80;99.90;;;-1.86;100.00;97644.59;5010204;28;20045;-36
2023/12/07 05:51:06;;;;;;;6.50;4.20;;;-0.90;99.90;;;-1.92;100.00;97642.75;5009889;28;20068;-36
2023/12/07 05:53:32;;;;;;;8.82;4.55;;;-0.90;99.90;;;-1.87;100.00;97645.44;5013038;28;20108;-36
2023/12/07 05:55:58;;;;;;;8.23;4.78;;;-0.90;99.90;;;-1.88;100.00;97639.41;5013538;28;20075;-36
2023/12/07 05:58:24;;;;;;;7.68;4.93;;;-0.90;99.90;;;-1.88;100.00;97636.81;5012056;28;20059;-36
2023/12/07 06:00:50;;;;;;;8.35;4.85;;;-0.90;99.90;;;-2.01;100.00;97619.34;5003477;28;20517;-35
2023/12/07 06:03:16;;;;;;;11.48;4.50;;;-0.90;99.90;;;-1.88;100.00;97634.22;5006112;28;20525;-36
2023/12/07 06:05:43;;;;;;;8.82;4.40;;;-0.90;99.90;;;-1.87;100.00;97632.50;5011105;28;20452;-36
2023/12/07 06:08:09;;;;;;;8.18;4.88;;;-0.90;99.90;;;-1.95;100.00;97625.50;5016558;28;20028;-36
2023/12/07 06:10:35;;;;;;;6.43;4.22;;;-0.90;99.90;;;-1.91;100.00;97639.34;5009926;28;20041;-35
2023/12/07 06:13:01;;;;;;;11.30;5.38;;;-0.90;99.90;;;-1.90;100.00;97647.94;5012491;28;20037;-35
2023/12/07 06:15:27;;;;;;;9.32;4.55;;;-0.90;99.90;;;-1.92;100.00;97640.16;5015543;28;20025;-36
2023/12/07 06:17:54;;;;;;;8.27;4.97;;;-0.90;99.90;;;-2.02;100.00;97628.81;5012707;28;20029;-35
2023/12/07 06:20:20;;;;;;;9.77;5.20;;;-0.90;99.90;;;-2.00;100.00;97641.78;5014274;28;20033;-35
2023/12/07 06:22:46;;;;;;;9.13;5.10;;;-0.90;99.90;;;-2.01;100.00;97640.91;5014002;28;20422;-36
2023/12/07 06:25:12;;;;;;;7.75;4.80;;;-1.00;99.90;;;-2.02;100.00;97636.56;5016745;28;20219;-36
2023/12/07 06:27:38;;;;;;;9.20;5.40;;;-1.00;99.90;;;-2.02;100.00;97633.13;5014037;28;20402;-36
2023/12/07 06:30:05;;;;;;;9.82;5.00;;;-1.00;99.90;;;-2.04;100.00;97635.69;5012195;28;20197;-36
2023/12/07 06:32:32;;;;;;;7.35;4.75;;;-1.00;99.90;;;-2.08;100.00;97645.94;5013909;28;20163;-36
2023/12/07 06:34:58;;;;;;;9.25;5.88;;;-1.00;99.90;;;-2.11;100.00;97644.19;5012686;28;20038;-36
2023/12/07 06:37:23;;;;;;;7.82;4.95;;;-1.10;99.90;;;-2.25;100.00;97628.44;5016534;28;20116;-36
2023/12/07 06:39:49;;;;;;;9.00;5.60;;;-1.10;99.90;;;-2.13;100.00;97641.56;5010256;28;20038;-36
2023/12/07 06:42:15;;;;;;;10.45;5.78;;;-1.10;99.90;;;-2.15;100.00;97640.66;5014584;28;20038;-36
2023/12/07 06:44:46;;;;;;;9.60;5.45;;;-1.10;99.90;;;-2.15;100.00;97638.09;5012299;28;20117;-36
2023/12/07 06:47:12;;;;;;;7.68;4.88;;;-1.10;99.90;;;-2.16;100.00;97640.66;4999313;28;20028;-36
2023/12/07 06:49:38;;;;;;;10.60;5.20;;;-1.10;99.90;;;-2.18;100.00;97643.19;5015565;28;20041;-36
2023/12/07 06:52:04;;;;;;;10.80;6.13;;;-1.10;99.90;;;-2.18;100.00;97642.34;5015779;28;20033;-36
2023/12/07 06:54:30;;;;;;;8.02;5.47;;;-1.10;99.90;;;-2.29;100.00;97631.81;5018062;28;20056;-36
2023/12/07 06:56:56;;;;;;;11.38;5.50;;;-1.10;99.90;;;-2.19;100.00;97645.75;5017966;28;20489;-36
2023/12/07 06:59:21;;;;;;;9.80;5.43;;;-1.10;99.90;;;-2.18;100.00;97648.38;5019466;28;20168;-36
2023/12/07 07:01:47;;;;;;;9.70;5.57;;;-1.10;99.90;;;-2.18;100.00;97652.66;5013091;28;20034;-36
2023/12/07 07:04:13;;;;;;;9.48;5.80;;;-1.10;99.90;;;-2.24;100.00;97639.63;5020585;28;20041;-36
2023/12/07 07:06:41;;;;;;;9.95;5.70;;;-1.20;99.90;;;-2.21;100.00;97639.69;5018307;28;20041;-36
2023/12/07 07:09:06;;;;;;;10.45;6.10;;;-1.20;99.90;;;-2.21;100.00;97648.31;5017875;28;20417;-37
2023/12/07 07:11:32;;;;;;;10.85;5.60;;;-1.20;99.90;;;-2.20;100.00;97644.03;5017734;28;20033;-37
2023/12/07 07:13:58;;;;;;;11.13;5.78;;;-1.20;99.90;;;-2.21;100.00;97645.72;5017126;28;20033;-36
2023/12/07 07:16:24;;;;;;;8.23;5.35;;;-1.20;99.90;;;-2.20;100.00;97647.47;5015925;28;20033;-36
2023/12/07 07:18:50;;;;;;;10.10;6.00;;;-1.20;99.90;;;-2.19;100.00;97645.75;5014243;28;20045;-37
2023/12/07 07:21:15;;;;;;;11.95;6.50;;;-1.20;99.90;;;-2.24;100.00;97631.88;5018672;28;20630;-37
2023/12/07 07:23:41;;;;;;;11.55;6.22;;;-1.10;99.90;;;-2.15;100.00;97640.66;5018872;28;20112;-36
2023/12/07 07:26:08;;;;;;;12.43;6.25;;;-1.10;99.90;;;-2.13;100.00;97643.28;5018757;28;20037;-37
2023/12/07 07:28:34;;;;;;;11.68;5.95;;;-1.10;99.90;;;-2.13;100.00;97641.56;5017797;28;20033;-36
2023/12/07 07:31:00;;;;;;;11.10;6.55;;;-1.10;99.90;;;-2.11;100.00;97645.03;5010176;28;20036;-36
2023/12/07 07:33:26;;;;;;;11.15;5.85;;;-1.10;99.90;;;-2.11;100.00;97639.00;5014078;28;20034;-36
2023/12/07 07:35:51;;;;;;;10.55;6.28;;;-1.10;99.90;;;-2.05;100.00;97648.56;5016821;28;20490;-37
2023/12/07 07:38:17;;;;;;;11.77;6.28;;;-1.00;99.90;;;-1.99;100.00;97643.50;5016302;28;20550;-37
2023/12/07 07:40:45;;;;;;;11.90;6.70;;;-0.90;99.90;;;-2.04;100.00;97634.81;5015880;28;20064;-36
2023/12/07 07:43:11;;;;;;;13.20;6.63;;;-0.90;99.90;;;-1.95;100.00;97650.47;5016701;28;20030;-36
2023/12/07 07:45:36;;;;;;;11.88;6.72;;;-0.90;99.90;;;-1.94;100.00;97652.19;5012968;28;20077;-37
2023/12/07 07:48:02;;;;;;;10.52;6.20;;;-0.90;99.90;;;-1.89;100.00;97657.47;5014452;28;20504;-36
2023/12/07 07:50:28;;;;;;;11.60;6.40;;;-0.90;99.90;;;-1.88;100.00;97654.91;5014984;28;20129;-36
2023/12/07 07:52:55;;;;;;;11.23;6.53;;;-0.80;99.90;;;-1.91;100.00;97641.91;5016332;28;20049;-36
2023/12/07 07:55:20;;;;;;;11.65;6.68;;;-0.70;99.90;;;-1.79;100.00;97657.63;5008095;28;20144;-36
2023/12/07 07:57:46;;;;;;;11.07;6.40;;;-0.70;99.90;;;-1.81;100.00;97651.56;5011636;28;20510;-36
2023/12/07 08:00:13;;;;;;;12.18;7.25;;;-0.70;99.90;;;-1.73;100.00;97660.31;5013322;28;20038;-36
2023/12/07 08:02:38;;;;;;;12.55;7.30;;;-0.70;99.90;;;-1.69;100.00;97657.78;5013630;28;20037;-36
2023/12/07 08:05:05;;;;;;;11.85;6.72;;;-0.60;99.90;;;-1.69;100.00;97652.59;5017300;28;20035;-36
2023/12/07 08:07:30;;;;;;;12.45;6.82;;;-0.60;99.90;;;-1.61;100.00;97659.63;5014924;28;20591;-36
2023/12/07 08:09:56;;;;;;;13.38;7.05;;;-0.60;99.90;;;-1.57;100.00;97664.00;5017370;28;20056;-36
2023/12/07 08:12:25;;;;;;;14.20;7.80;;;-0.50;99.90;;;-1.63;100.00;97639.78;5010138;28;20072;-36
2023/12/07 08:14:50;;;;;;;14.57;7.25;;;-0.50;99.90;;;-1.45;100.00;97655.56;5013556;28;20104;-36
2023/12/07 08:17:16;;;;;;;12.85;6.65;;;-0.40;99.90;;;-1.38;100.00;97651.34;5014611;28;20473;-37
2023/12/07 08:19:42;;;;;;;12.50;6.63;;;-0.30;99.90;;;-1.50;100.00;97626.16;5011787;28;20041;-34
2023/12/07 08:22:08;;;;;;;13.32;6.88;;;-0.30;99.90;;;-1.35;100.00;97647.09;5019048;28;20262;-34
2023/12/07 08:24:35;;;;;;;14.27;7.18;;;-0.30;99.90;;;-1.31;100.00;97642.84;5019608;28;20495;-34
2023/12/07 08:27:01;;;;;;;11.98;7.00;;;-0.20;99.90;;;-1.24;100.00;97662.78;5010844;28;20485;-36
2023/12/07 08:29:26;;;;;;;11.90;7.22;;;-0.20;99.90;;;-1.17;100.00;97661.13;5018817;28;20044;-36
2023/12/07 08:31:52;;;;;;;11.40;7.15;;;-0.20;99.90;;;-1.18;100.00;97659.38;5016892;28;20305;-36
2023/12/07 08:34:18;;;;;;;15.70;8.00;;;-0.10;99.90;;;-1.05;100.00;97660.41;5015915;28;20064;-35
2023/12/07 08:36:43;;;;;;;12.77;7.93;;;0.00;99.90;;;-0.98;100.00;97667.41;5015989;28;20382;-36
2023/12/07 08:39:09;;;;;;;13.38;8.15;;;0.00;99.90;;;-0.92;100.00;97672.66;5015635;28;20025;-36
2023/12/07 08:41:36;;;;;;;15.20;8.20;;;0.10;99.90;;;-0.94;100.00;97655.38;5012925;28;20065;-34
2023/12/07 08:44:02;;;;;;;13.63;7.03;;;0.20;99.90;;;-0.84;100.00;97665.00;5011121;28;20025;-37
2023/12/07 08:46:28;;;;;;;13.43;7.20;;;0.20;99.90;;;-0.80;100.00;97670.22;5017799;28;20386;-36
2023/12/07 08:48:54;;;;;;;13.85;6.93;;;0.20;99.90;;;-0.74;100.00;97663.38;5014326;28;20032;-37
2023/12/07 08:51:19;;;;;;;12.20;7.22;;;0.30;99.90;;;-0.72;100.00;97664.28;5017229;28;20059;-37
2023/12/07 08:53:46;;;;;;;10.20;6.57;;;0.30;99.90;;;-0.67;100.00;97658.28;5016800;28;20036;-36
2023/12/07 08:56:12;;;;;;;9.55;5.88;;;0.30;99.90;;;-0.62;100.00;97648.00;5017536;28;20052;-37
2023/12/07 08:58:39;;;;;;;10.05;6.30;;;0.40;99.90;;;-0.59;100.00;97635.94;5017961;28;20132;-37
2023/12/07 09:01:07;;;;;;;12.40;6.28;;;0.40;99.90;;;-0.54;100.00;97645.47;5011436;28;20037;-37
2023/12/07 09:03:33;;;;;;;10.88;6.85;;;0.50;99.90;;;-0.52;100.00;97638.59;5017366;28;20156;-37
2023/12/07 09:06:00;;;;;;;12.15;6.93;;;0.50;99.90;;;-0.51;100.00;97638.59;5015576;28;20029;-37
2023/12/07 09:08:26;;;;;;;9.60;6.40;;;0.50;99.90;;;-0.47;100.00;97640.38;5014590;28;20025;-36
2023/12/07 09:10:52;;;;;;;11.02;6.80;;;0.60;99.90;;;-0.36;100.00;97643.06;5014364;28;20029;-37
2023/12/07 09:13:18;;;;;;;11.15;7.40;;;0.60;99.90;;;-0.27;100.00;97634.53;5014732;28;20033;-37
2023/12/07 09:15:44;;;;;;;12.30;7.35;;;0.70;99.90;;;-0.22;100.00;97628.53;4997015;28;20043;-37
2023/12/07 09:18:12;;;;;;;12.20;6.90;;;0.80;99.90;;;-0.17;100.00;97635.50;5015615;28;20029;-37
2023/12/07 09:20:46;;;;;;;10.73;7.28;;;0.90;99.90;;;-0.14;100.00;97620.84;5014663;28;20128;-37
2023/12/07 09:23:15;;;;;;;12.13;7.47;;;0.90;99.90;;;-0.05;100.00;97627.84;5014929;28;20485;-36
2023/12/07 09:25:42;;;;;;;12.65;6.82;;;1.00;99.90;;;0.02;100.00;97620.94;4998461;28;20128;-36
2023/12/07 09:28:08;;;;;;;11.38;6.80;;;1.10;99.90;;;-0.05;100.00;97604.50;5016169;28;20037;-36
2023/12/07 09:30:34;;;;;;;11.43;7.30;;;1.10;99.90;;;0.09;100.00;97633.09;5015809;28;20087;-37
2023/12/07 09:33:03;;;;;;;12.52;6.55;;;1.10;99.90;;;0.02;100.00;97624.44;5014653;28;20103;-37
2023/12/07 09:35:29;;;;;;;9.93;6.47;;;1.20;99.90;;;0.15;100.00;97638.38;5013631;28;20033;-37
2023/12/07 09:37:54;;;;;;;10.88;6.18;;;1.20;99.90;;;0.16;100.00;97638.38;5014589;28;20095;-37
2023/12/07 09:40:22;;;;;;;11.93;7.00;;;1.20;99.90;;;0.22;100.00;97631.50;5015394;28;20060;-37
2023/12/07 09:42:49;;;;;;;11.75;6.88;;;1.20;99.90;;;0.31;100.00;97639.34;5013720;28;20474;-37
2023/12/07 09:45:18;;;;;;;13.82;7.25;;;1.30;99.90;;;0.33;100.00;97622.06;5014050;28;20341;-37
2023/12/07 09:47:50;;;;;;;10.80;7.20;;;1.40;99.90;;;0.36;100.00;97622.09;5016468;28;20033;-37
2023/12/07 09:50:25;;;;;;;12.07;7.30;;;1.40;99.90;;;0.37;100.00;97623.81;5016512;28;20687;-37
2023/12/07 09:52:56;;;;;;;12.30;7.28;;;1.40;99.90;;;0.38;100.00;97618.66;5001611;28;20029;-37
2023/12/07 09:55:22;;;;;;;11.57;7.20;;;1.50;99.90;;;0.46;100.00;97615.22;5009339;28;20615;-37
2023/12/07 09:57:51;;;;;;;12.00;6.93;;;1.50;99.90;;;0.53;100.00;97615.28;5012737;28;20652;-35
2023/12/07 10:00:17;;;;;;;11.35;6.80;;;1.50;99.90;;;0.59;100.00;97618.78;5010618;28;20037;-35
2023/12/07 10:02:46;;;;;;;12.68;7.32;;;1.60;99.90;;;0.64;100.00;97614.47;5016263;28;20103;-36
2023/12/07 10:05:14;;;;;;;12.45;7.03;;;1.60;99.90;;;0.69;100.00;97615.38;5017734;28;20656;-36
2023/12/07 10:07:41;;;;;;;10.63;6.53;;;1.70;99.90;;;0.73;100.00;97615.38;5018744;28;20036;-36
2023/12/07 10:10:09;;;;;;;13.38;7.18;;;1.70;99.90;;;0.75;100.00;97607.59;5009366;28;20037;-36
2023/12/07 10:12:35;;;;;;;13.65;7.60;;;1.80;99.90;;;0.82;100.00;97601.59;5014026;28;20116;-36
2023/12/07 10:15:15;;;;;;;11.27;7.28;;;1.80;99.90;;;0.88;100.00;97592.94;5012310;28;20500;-36